EST,Max TemperatureF,Mean TemperatureF,Min TemperatureF,Max Dew PointF,MeanDew PointF,Min DewpointF,Max Humidity, Mean Humidity, Min Humidity, Max Sea Level PressureIn, Mean Sea Level PressureIn, Min Sea Level PressureIn, Max VisibilityMiles, Mean VisibilityMiles, Min VisibilityMiles, Max Wind SpeedMPH, Mean Wind SpeedMPH, Max Gust SpeedMPH,PrecipitationIn, CloudCover, Events, WindDirDegrees
2012-11-1,64,48,32,37,34,32,100,62,32,29.91,29.85,29.80,10,10,10,16,4,22,0.00,0,,262
2012-11-2,75,54,33,50,40,32,100,62,33,29.98,29.91,29.83,10,10,7,13,4,20,0.00,0,,249
2012-11-3,69,54,39,50,44,37,100,72,37,30.13,30.05,29.97,10,10,10,6,1,,0.00,0,,96
2012-11-4,82,65,48,70,56,46,100,84,48,30.04,29.96,29.88,10,9,2,9,2,,0.03,0,,301
2012-11-5,62,53,44,52,46,41,100,79,45,30.08,30.03,29.96,10,10,10,10,4,,0.00,0,,360
2012-11-6,55,47,37,45,41,37,100,83,63,30.06,29.99,29.92,,,,10,3,20,0.02,0,,1
2012-11-7,59,48,37,43,40,36,100,82,42,29.97,29.90,29.84,,,,9,3,,0.00,0,,304
2012-11-8,64,48,33,45,38,32,100,78,30,30.14,30.06,29.97,10,10,10,12,2,16,0.00,0,,288
2012-11-9,68,50,32,45,37,32,100,73,32,30.30,30.23,30.14,10,10,10,7,1,,0.00,0,,340
2012-11-10,73,54,35,48,43,36,100,68,33,30.40,30.34,30.28,10,10,10,5,1,,0.00,0,,206
2012-11-11,77,60,42,63,54,41,100,84,57,30.47,30.41,30.38,10,10,10,13,2,16,0.00,0,,85
2012-11-12,78,66,55,68,62,55,100,83,54,30.39,30.29,30.19,10,9,2,13,2,20,0.00,0,Rain,134
2012-11-13,71,61,51,68,58,50,100,95,82,30.34,30.24,30.16,10,9,7,13,5,18,0.04,0,,345
2012-11-14,53,50,46,48,44,43,88,78,71,30.41,30.34,30.30,10,10,7,10,7,18,0.00,0,,8
2012-11-15,51,46,42,50,45,43,100,96,76,30.33,30.24,30.20,10,7,1,16,6,22,0.45,0,Rain-Thunderstorm,343
2012-11-16,59,52,44,52,48,43,100,91,67,30.34,30.27,30.23,10,10,7,8,4,,0.00,0,,356
2012-11-17,55,48,42,48,44,37,93,80,72,30.40,30.36,30.33,10,10,10,9,5,17,0.00,0,,4
2012-11-18,53,52,50,54,50,45,100,91,72,30.34,30.28,30.23,10,9,4,12,8,21,0.11,0,Rain,346
2012-11-19,62,58,53,55,52,50,94,84,77,30.24,30.19,30.14,10,10,10,12,8,21,0.00,0,,345
2012-11-20,62,53,44,54,50,45,100,89,72,30.15,30.10,30.05,10,10,7,8,3,,0.00,0,,333
2012-11-21,62,50,39,50,44,39,100,86,55,30.15,30.11,30.07,10,9,4,10,2,16,0.00,0,,335
2012-11-22,64,50,35,41,37,34,100,73,32,30.24,30.17,30.14,10,10,10,13,2,20,0.00,0,,324
2012-11-23,69,50,32,48,41,32,100,74,40,30.18,30.07,29.93,10,10,10,12,1,16,0.00,0,,211
2012-11-24,59,46,33,46,38,32,100,71,39,30.12,30.01,29.92,10,10,7,12,4,18,0.00,0,,290
2012-11-25,60,44,28,37,32,28,100,72,36,30.23,30.15,30.09,10,10,10,7,1,,0.00,0,,252
2012-11-26,69,50,32,41,35,32,100,72,25,30.24,30.18,30.14,10,9,0,7,1,,0.00,0,Fog,205
2012-11-27,62,48,35,55,46,36,100,90,52,30.21,30.17,30.10,10,9,2,5,0,,0.08,0,Rain,315
2012-11-28,55,44,33,52,44,34,100,87,58,30.40,30.31,30.18,10,9,2,10,3,,0.00,0,,353
2012-11-29,60,45,30,43,35,30,100,80,36,30.49,30.42,30.38,10,9,5,8,0,,0.00,0,,74
2012-11-30,66,49,32,52,41,32,100,83,45,30.42,30.36,30.31,10,9,7,4,0,,0.00,0,,320